createdAt,value
2017-09-17T00:00:08.834Z,0
2017-09-17T00:00:49.366Z,0
2017-09-17T00:01:29.917Z,0
2017-09-17T00:02:10.485Z,0
2017-09-17T00:02:51.046Z,0
2017-09-17T00:03:31.611Z,0
2017-09-17T00:04:12.179Z,0
2017-09-17T00:04:52.725Z,0
2017-09-17T00:05:33.253Z,0
2017-09-17T00:06:13.784Z,0
2017-09-17T00:06:54.354Z,0
2017-09-17T00:07:34.906Z,0
2017-09-17T00:08:15.476Z,0
2017-09-17T00:08:55.975Z,0
2017-09-17T00:09:36.515Z,0
2017-09-17T00:10:17.073Z,0
2017-09-17T00:10:57.622Z,0
2017-09-17T00:11:38.168Z,0
2017-09-17T00:12:18.731Z,0
2017-09-17T00:12:59.250Z,0
2017-09-17T00:13:39.812Z,0
2017-09-17T00:14:20.380Z,0
2017-09-17T00:15:00.910Z,0
2017-09-17T00:15:41.433Z,0
2017-09-17T00:16:21.979Z,0
2017-09-17T00:18:34.741Z,0
2017-09-17T00:19:15.292Z,0
2017-09-17T00:19:55.839Z,0
2017-09-17T00:20:36.375Z,0
2017-09-17T00:21:16.944Z,0
2017-09-17T00:21:57.497Z,0
2017-09-17T00:22:38.056Z,0
2017-09-17T00:23:18.608Z,0
2017-09-17T00:23:59.152Z,0
2017-09-17T00:24:39.678Z,0
2017-09-17T00:25:20.221Z,0
2017-09-17T00:26:00.789Z,0
2017-09-17T00:26:41.340Z,0
2017-09-17T00:27:21.893Z,0
2017-09-17T00:28:02.423Z,0
2017-09-17T00:28:43.002Z,0
2017-09-17T00:29:23.545Z,0
2017-09-17T00:30:04.118Z,0
2017-09-17T00:30:44.690Z,0
2017-09-17T00:31:25.243Z,0
2017-09-17T00:32:05.779Z,0
2017-09-17T00:32:46.318Z,0
2017-09-17T00:33:26.881Z,0
2017-09-17T00:34:07.422Z,0
2017-09-17T00:34:47.968Z,0
2017-09-17T00:35:28.538Z,0
2017-09-17T00:36:09.110Z,0
2017-09-17T00:36:49.641Z,0
2017-09-17T00:37:30.210Z,0
2017-09-17T00:38:10.745Z,0
2017-09-17T00:38:51.304Z,0
2017-09-17T00:39:31.855Z,0
2017-09-17T00:40:12.416Z,0
2017-09-17T00:40:52.950Z,0
2017-09-17T00:41:33.502Z,0
2017-09-17T00:42:14.051Z,0
2017-09-17T00:42:54.594Z,0
2017-09-17T00:43:35.144Z,0
2017-09-17T00:44:15.693Z,0
2017-09-17T00:44:56.247Z,0
2017-09-17T00:45:36.797Z,0
2017-09-17T00:46:17.303Z,0
2017-09-17T00:46:57.857Z,0
2017-09-17T00:47:38.393Z,0
2017-09-17T00:48:18.932Z,0
2017-09-17T00:48:59.496Z,0
2017-09-17T00:49:40.047Z,0
2017-09-17T00:50:20.599Z,0
2017-09-17T00:51:01.128Z,0
2017-09-17T00:51:41.691Z,0
2017-09-17T00:52:22.246Z,0
2017-09-17T00:53:02.855Z,0
2017-09-17T00:53:43.358Z,0
2017-09-17T00:54:23.876Z,0
2017-09-17T00:55:04.458Z,0
2017-09-17T00:55:44.988Z,0
2017-09-17T00:56:25.545Z,0
2017-09-17T00:57:06.090Z,0
2017-09-17T00:57:46.640Z,0
2017-09-17T00:58:27.190Z,0
2017-09-17T00:59:07.742Z,0
2017-09-17T00:59:48.309Z,0
2017-09-17T01:00:28.841Z,0
2017-09-17T01:01:09.373Z,0
2017-09-17T01:01:49.973Z,0
2017-09-17T01:02:30.488Z,0
2017-09-17T01:03:11.011Z,0
2017-09-17T01:03:51.525Z,0
2017-09-17T01:04:32.065Z,0
2017-09-17T01:05:12.616Z,0
2017-09-17T01:05:53.180Z,0
2017-09-17T01:06:33.724Z,0
2017-09-17T01:07:14.241Z,0
2017-09-17T01:07:54.826Z,0
2017-09-17T01:08:35.379Z,0
2017-09-17T01:09:15.964Z,0
2017-09-17T01:09:56.468Z,0
2017-09-17T01:10:37.018Z,0
2017-09-17T01:11:17.530Z,0
2017-09-17T01:11:58.064Z,0
2017-09-17T01:12:38.562Z,0
2017-09-17T01:13:19.094Z,0
2017-09-17T01:13:59.622Z,0
2017-09-17T01:14:40.179Z,0
2017-09-17T01:15:20.700Z,0
2017-09-17T01:16:01.235Z,0
2017-09-17T01:16:41.796Z,0
2017-09-17T01:17:22.319Z,0
2017-09-17T01:18:02.870Z,0
2017-09-17T01:18:43.421Z,0
2017-09-17T01:19:23.982Z,0
2017-09-17T01:20:04.533Z,0
2017-09-17T01:20:45.075Z,0
2017-09-17T01:21:25.629Z,0
2017-09-17T01:22:06.193Z,0
2017-09-17T01:22:46.723Z,0
2017-09-17T01:23:27.281Z,0
2017-09-17T01:24:07.811Z,0
2017-09-17T01:24:48.370Z,0
2017-09-17T01:25:28.890Z,0
2017-09-17T01:26:09.421Z,0
2017-09-17T01:26:49.959Z,0
2017-09-17T01:27:30.509Z,0
2017-09-17T01:28:11.033Z,0
2017-09-17T01:28:51.590Z,0
2017-09-17T01:29:32.139Z,0
2017-09-17T01:30:12.685Z,0
2017-09-17T01:30:53.228Z,0
2017-09-17T01:31:33.786Z,0
2017-09-17T01:32:14.338Z,0
2017-09-17T01:32:54.909Z,0
2017-09-17T01:33:35.465Z,0
2017-09-17T01:34:15.987Z,0
2017-09-17T01:34:56.532Z,0
2017-09-17T01:35:37.078Z,0
2017-09-17T01:36:17.664Z,0
2017-09-17T01:36:58.209Z,0
2017-09-17T01:37:38.739Z,0
2017-09-17T01:38:19.273Z,0
2017-09-17T01:38:59.799Z,0
2017-09-17T01:39:40.378Z,0
2017-09-17T01:40:20.922Z,0
2017-09-17T01:41:01.465Z,0
2017-09-17T01:41:42.028Z,0
2017-09-17T01:42:22.581Z,0
2017-09-17T01:43:03.115Z,0
2017-09-17T01:43:43.660Z,0
2017-09-17T01:44:24.212Z,0
2017-09-17T01:45:04.766Z,0
2017-09-17T01:45:45.309Z,0
2017-09-17T01:46:25.876Z,0
2017-09-17T01:47:06.407Z,0
2017-09-17T01:47:46.957Z,0
2017-09-17T01:48:27.519Z,0
2017-09-17T01:49:08.067Z,0
2017-09-17T01:49:48.584Z,0
2017-09-17T01:50:29.122Z,0
2017-09-17T01:51:09.665Z,0
2017-09-17T01:51:50.189Z,0
2017-09-17T01:52:30.728Z,0
2017-09-17T01:53:11.279Z,0
2017-09-17T01:53:51.836Z,0
2017-09-17T01:54:32.373Z,0
2017-09-17T01:55:12.925Z,0
2017-09-17T01:55:53.457Z,0
2017-09-17T01:56:34.005Z,0
2017-09-17T01:57:14.526Z,0
2017-09-17T01:57:55.080Z,0
2017-09-17T01:58:35.591Z,0
2017-09-17T01:59:16.145Z,0
2017-09-17T01:59:56.688Z,0
2017-09-17T02:00:37.252Z,0
2017-09-17T02:01:17.792Z,0
2017-09-17T02:01:58.343Z,0
2017-09-17T02:02:38.886Z,0
2017-09-17T02:05:07.454Z,0
2017-09-17T02:05:48.014Z,0
2017-09-17T02:06:28.558Z,0
2017-09-17T02:07:09.108Z,0
2017-09-17T02:07:49.665Z,0
2017-09-17T02:08:30.181Z,0
2017-09-17T02:09:10.771Z,0
2017-09-17T02:09:51.265Z,0
2017-09-17T02:10:31.811Z,0
2017-09-17T02:11:12.357Z,0
2017-09-17T02:11:52.916Z,0
2017-09-17T02:12:33.464Z,0
2017-09-17T02:13:13.991Z,0
2017-09-17T02:13:54.535Z,0
2017-09-17T02:14:35.108Z,0
2017-09-17T02:15:15.625Z,0
2017-09-17T02:15:56.178Z,0
2017-09-17T02:16:36.715Z,0
2017-09-17T02:17:17.299Z,0
2017-09-17T02:17:57.830Z,0
2017-09-17T02:18:38.386Z,0
2017-09-17T02:19:18.895Z,0
2017-09-17T02:19:59.429Z,0
2017-09-17T02:20:39.948Z,0
2017-09-17T02:21:20.484Z,0
2017-09-17T02:22:01.037Z,0
2017-09-17T02:22:41.589Z,0
2017-09-17T02:23:22.122Z,0
2017-09-17T02:24:02.667Z,0
2017-09-17T02:24:43.188Z,0
2017-09-17T02:25:23.726Z,0
2017-09-17T02:26:04.249Z,0
2017-09-17T02:26:44.770Z,0
2017-09-17T02:27:25.317Z,0
2017-09-17T02:28:05.844Z,0
2017-09-17T02:28:46.374Z,0
2017-09-17T02:29:26.907Z,0
2017-09-17T02:30:07.459Z,0
2017-09-17T02:30:48.013Z,0
2017-09-17T02:31:28.555Z,0
2017-09-17T02:32:09.119Z,0
2017-09-17T02:32:49.609Z,0
2017-09-17T02:33:30.161Z,0
2017-09-17T02:34:10.710Z,0
2017-09-17T02:34:51.264Z,0
2017-09-17T02:35:31.839Z,0
2017-09-17T02:36:12.379Z,0
2017-09-17T02:36:52.937Z,0
2017-09-17T02:37:33.454Z,0
2017-09-17T02:38:14.017Z,0
2017-09-17T02:38:54.643Z,0
2017-09-17T02:39:35.173Z,0
2017-09-17T02:40:15.724Z,0
2017-09-17T02:40:56.277Z,0
2017-09-17T02:41:36.781Z,0
2017-09-17T02:42:17.328Z,0
2017-09-17T02:42:57.842Z,0
2017-09-17T02:43:38.367Z,0
2017-09-17T02:44:18.910Z,0
2017-09-17T02:44:59.470Z,0
2017-09-17T02:45:40.051Z,0
2017-09-17T02:46:20.562Z,0
2017-09-17T02:47:01.081Z,0
2017-09-17T02:47:41.615Z,0
2017-09-17T02:48:22.167Z,0
2017-09-17T02:49:02.708Z,0
2017-09-17T02:49:43.224Z,0
2017-09-17T02:50:23.748Z,0
2017-09-17T02:51:04.309Z,0
2017-09-17T02:51:44.846Z,0
2017-09-17T02:52:25.375Z,0
2017-09-17T02:53:05.919Z,0
2017-09-17T02:53:46.454Z,0
2017-09-17T02:54:27.034Z,0
2017-09-17T02:55:07.562Z,0
2017-09-17T02:55:48.108Z,0
2017-09-17T02:56:28.667Z,0
2017-09-17T02:57:09.171Z,0
2017-09-17T02:57:49.722Z,0
2017-09-17T02:58:30.251Z,0
2017-09-17T02:59:10.832Z,0
2017-09-17T02:59:51.356Z,0
2017-09-17T03:00:31.894Z,0
2017-09-17T03:01:12.450Z,0
2017-09-17T03:01:52.979Z,0
2017-09-17T03:02:33.543Z,0
2017-09-17T03:03:14.075Z,0
2017-09-17T03:03:54.650Z,0
2017-09-17T03:04:35.184Z,0
2017-09-17T03:05:15.779Z,0
2017-09-17T03:05:56.353Z,0
2017-09-17T03:06:36.879Z,0
2017-09-17T03:07:17.396Z,0
2017-09-17T03:07:57.930Z,0
2017-09-17T03:08:38.470Z,0
2017-09-17T03:09:19.013Z,0
2017-09-17T03:09:59.604Z,0
2017-09-17T03:10:40.175Z,0
2017-09-17T03:11:20.742Z,0
2017-09-17T03:12:01.269Z,0
2017-09-17T03:12:41.814Z,0
2017-09-17T03:13:22.376Z,0
2017-09-17T03:14:02.909Z,0
2017-09-17T03:14:43.480Z,0
2017-09-17T03:15:24.000Z,0
2017-09-17T03:16:04.527Z,0
2017-09-17T03:16:45.071Z,0
2017-09-17T03:17:25.604Z,0
2017-09-17T03:18:06.144Z,0
2017-09-17T03:18:46.704Z,0
2017-09-17T03:19:27.196Z,0
2017-09-17T03:20:07.727Z,0
2017-09-17T03:20:48.257Z,0
2017-09-17T03:21:28.770Z,0
2017-09-17T03:22:09.304Z,0
2017-09-17T03:22:49.844Z,0
2017-09-17T03:23:30.427Z,0
2017-09-17T03:24:10.959Z,0
2017-09-17T03:24:51.489Z,0
2017-09-17T03:25:32.039Z,0
2017-09-17T03:26:12.611Z,0
2017-09-17T03:26:53.156Z,0
2017-09-17T03:27:33.709Z,0
2017-09-17T03:28:14.265Z,0
2017-09-17T03:28:54.815Z,0
2017-09-17T03:29:35.355Z,0
2017-09-17T03:30:15.903Z,0
2017-09-17T03:30:56.446Z,0
2017-09-17T03:31:36.962Z,0
2017-09-17T03:32:17.519Z,0
2017-09-17T03:32:58.061Z,0
2017-09-17T03:33:38.615Z,0
2017-09-17T03:34:19.148Z,0
2017-09-17T03:34:59.699Z,0
2017-09-17T03:35:40.228Z,0
2017-09-17T03:36:20.766Z,0
2017-09-17T03:37:01.308Z,0
2017-09-17T03:37:41.848Z,0
2017-09-17T03:38:22.405Z,0
2017-09-17T03:39:02.945Z,0
2017-09-17T03:39:43.497Z,0
2017-09-17T03:40:24.059Z,0
2017-09-17T03:41:04.620Z,0
2017-09-17T03:41:45.169Z,0
2017-09-17T03:42:25.738Z,0
2017-09-17T03:43:06.270Z,0
2017-09-17T03:43:46.822Z,0
2017-09-17T03:44:27.369Z,0
2017-09-17T03:45:07.918Z,0
2017-09-17T03:45:48.441Z,0
2017-09-17T03:46:28.984Z,0
2017-09-17T03:47:09.521Z,0
2017-09-17T03:47:50.046Z,0
2017-09-17T03:48:30.600Z,0
2017-09-17T03:49:11.137Z,0
2017-09-17T03:49:51.675Z,0
2017-09-17T03:50:32.210Z,0
2017-09-17T03:51:12.766Z,0
2017-09-17T03:51:53.291Z,0
2017-09-17T03:52:33.858Z,0
2017-09-17T03:53:14.393Z,0
2017-09-17T03:53:54.954Z,0
2017-09-17T03:54:35.485Z,0
2017-09-17T03:55:16.054Z,0
2017-09-17T03:55:56.607Z,0
2017-09-17T03:56:37.143Z,0
2017-09-17T03:57:17.652Z,0
2017-09-17T03:57:58.204Z,0
2017-09-17T03:58:38.754Z,0
2017-09-17T03:59:19.296Z,0
2017-09-17T03:59:59.863Z,0
2017-09-17T04:00:40.397Z,0
2017-09-17T04:01:20.941Z,0
2017-09-17T04:02:01.491Z,0
2017-09-17T04:02:42.080Z,0
2017-09-17T04:03:22.571Z,0
2017-09-17T04:04:03.121Z,0
2017-09-17T04:04:43.661Z,0
2017-09-17T04:05:24.213Z,0
2017-09-17T04:06:04.751Z,0
2017-09-17T04:06:45.309Z,0
2017-09-17T04:07:25.840Z,0
2017-09-17T04:08:06.390Z,0
2017-09-17T04:08:46.924Z,0
2017-09-17T04:09:27.499Z,0
2017-09-17T04:10:08.062Z,0
2017-09-17T04:10:48.602Z,0
2017-09-17T04:11:29.132Z,0
2017-09-17T04:12:09.666Z,0
2017-09-17T04:12:50.206Z,0
2017-09-17T04:13:30.757Z,0
2017-09-17T04:14:11.298Z,0
2017-09-17T04:14:51.830Z,0
2017-09-17T04:15:32.378Z,0
2017-09-17T04:16:12.918Z,0
2017-09-17T04:16:53.460Z,0
2017-09-17T04:17:34.010Z,0
2017-09-17T04:18:14.541Z,0
2017-09-17T04:18:55.104Z,0
2017-09-17T04:19:35.627Z,0
2017-09-17T04:20:16.184Z,0
2017-09-17T04:20:56.747Z,0
2017-09-17T04:21:37.245Z,0
2017-09-17T04:22:17.786Z,0
2017-09-17T04:22:58.338Z,0
2017-09-17T04:23:38.881Z,0
2017-09-17T04:24:19.435Z,0
2017-09-17T04:24:59.983Z,0
2017-09-17T04:25:40.547Z,0
2017-09-17T04:26:21.071Z,0
2017-09-17T04:27:01.644Z,0
2017-09-17T04:27:42.184Z,0
2017-09-17T04:28:22.743Z,0
2017-09-17T04:29:03.286Z,0
2017-09-17T04:29:43.843Z,0
2017-09-17T04:30:24.390Z,0
2017-09-17T04:31:04.925Z,0
2017-09-17T04:31:45.482Z,0
2017-09-17T04:32:26.049Z,0
2017-09-17T04:33:06.604Z,0
2017-09-17T04:33:47.173Z,0
2017-09-17T04:34:27.674Z,0
2017-09-17T04:35:08.244Z,0
2017-09-17T04:35:48.769Z,0
2017-09-17T04:36:29.341Z,0
2017-09-17T04:37:09.877Z,0
2017-09-17T04:37:50.417Z,0
2017-09-17T04:38:30.982Z,0
2017-09-17T04:39:11.515Z,0
2017-09-17T04:39:52.082Z,4
2017-09-17T04:40:32.610Z,4
2017-09-17T04:41:13.134Z,4
2017-09-17T04:41:53.688Z,0
2017-09-17T04:42:34.217Z,4
2017-09-17T04:43:14.747Z,4
2017-09-17T04:43:55.303Z,4
2017-09-17T04:44:35.843Z,4
2017-09-17T04:45:16.405Z,4
2017-09-17T04:45:56.953Z,4
2017-09-17T04:46:37.484Z,8
2017-09-17T04:47:18.015Z,8
2017-09-17T04:47:58.521Z,8
2017-09-17T04:48:39.108Z,8
2017-09-17T04:49:19.655Z,8
2017-09-17T04:50:00.201Z,8
2017-09-17T04:50:40.713Z,12
2017-09-17T04:51:21.233Z,16
2017-09-17T04:52:01.779Z,16
2017-09-17T04:52:42.339Z,20
2017-09-17T04:53:22.896Z,20
2017-09-17T04:54:03.446Z,24
2017-09-17T04:54:43.982Z,24
2017-09-17T04:55:24.522Z,28
2017-09-17T04:56:05.079Z,32
2017-09-17T04:56:45.610Z,36
2017-09-17T04:57:26.159Z,36
2017-09-17T04:58:06.692Z,40
2017-09-17T04:58:47.251Z,44
2017-09-17T04:59:27.805Z,48
2017-09-17T05:00:08.292Z,52
2017-09-17T05:00:48.840Z,56
2017-09-17T05:03:02.630Z,72
2017-09-17T05:03:43.177Z,76
2017-09-17T05:04:23.710Z,76
2017-09-17T05:05:04.266Z,80
2017-09-17T05:05:44.798Z,88
2017-09-17T05:06:25.329Z,92
2017-09-17T05:07:05.871Z,100
2017-09-17T05:07:46.427Z,104
2017-09-17T05:08:26.945Z,108
2017-09-17T05:09:07.486Z,112
2017-09-17T05:09:48.054Z,120
2017-09-17T05:10:28.585Z,120
2017-09-17T05:11:09.128Z,120
2017-09-17T05:11:49.682Z,116
2017-09-17T05:12:30.209Z,104
2017-09-17T05:13:10.719Z,100
2017-09-17T05:13:51.254Z,104
2017-09-17T05:14:31.828Z,112
2017-09-17T05:15:12.349Z,132
2017-09-17T05:15:52.860Z,152
2017-09-17T05:16:33.405Z,172
2017-09-17T05:17:13.946Z,188
2017-09-17T05:17:54.489Z,208
2017-09-17T05:18:35.016Z,224
2017-09-17T05:19:15.531Z,244
2017-09-17T05:19:56.083Z,264
2017-09-17T05:20:36.622Z,276
2017-09-17T05:21:17.167Z,284
2017-09-17T05:21:57.708Z,288
2017-09-17T05:22:38.249Z,300
2017-09-17T05:23:18.812Z,308
2017-09-17T05:23:59.394Z,324
2017-09-17T05:24:39.904Z,336
2017-09-17T05:25:20.466Z,344
2017-09-17T05:26:01.017Z,348
2017-09-17T05:26:41.574Z,352
2017-09-17T05:27:22.117Z,364
2017-09-17T05:28:02.644Z,372
2017-09-17T05:28:43.240Z,392
2017-09-17T05:29:23.784Z,412
2017-09-17T05:30:04.363Z,428
2017-09-17T05:30:44.917Z,436
2017-09-17T05:31:25.448Z,448
2017-09-17T05:32:05.952Z,464
2017-09-17T05:32:46.508Z,480
2017-09-17T05:33:27.013Z,496
2017-09-17T05:34:07.531Z,508
2017-09-17T05:34:48.067Z,524
2017-09-17T05:35:28.620Z,528
2017-09-17T05:36:09.103Z,540
2017-09-17T05:36:49.617Z,544
2017-09-17T05:37:30.165Z,544
2017-09-17T05:38:10.699Z,548
2017-09-17T05:38:51.248Z,552
2017-09-17T05:39:31.759Z,564
2017-09-17T05:40:12.312Z,572
2017-09-17T05:40:52.856Z,580
2017-09-17T05:41:33.390Z,588
2017-09-17T05:42:13.934Z,596
2017-09-17T05:42:54.472Z,604
2017-09-17T05:43:35.005Z,616
2017-09-17T05:44:15.557Z,628
2017-09-17T05:44:56.111Z,636
2017-09-17T05:45:36.628Z,644
2017-09-17T05:46:17.189Z,656
2017-09-17T05:46:57.744Z,668
2017-09-17T05:47:38.291Z,684
2017-09-17T05:48:18.805Z,692
2017-09-17T05:48:59.340Z,704
2017-09-17T05:49:39.879Z,716
2017-09-17T05:50:21.008Z,728
2017-09-17T05:51:01.579Z,736
2017-09-17T05:51:42.134Z,748
2017-09-17T05:52:22.668Z,756
2017-09-17T05:53:03.204Z,764
2017-09-17T05:53:43.736Z,772
2017-09-17T05:54:24.284Z,784
2017-09-17T05:55:04.863Z,796
2017-09-17T05:55:45.413Z,800
2017-09-17T05:56:25.948Z,808
2017-09-17T05:57:06.491Z,816
2017-09-17T05:57:47.049Z,832
2017-09-17T05:58:27.603Z,848
2017-09-17T05:59:08.193Z,880
2017-09-17T05:59:48.715Z,928
2017-09-17T06:00:29.266Z,984
2017-09-17T06:01:09.781Z,1052
2017-09-17T06:01:50.327Z,1108
2017-09-17T06:02:30.835Z,1148
2017-09-17T06:03:11.375Z,1188
2017-09-17T06:03:51.926Z,1240
2017-09-17T06:04:32.486Z,1284
2017-09-17T06:05:13.029Z,1312
2017-09-17T06:05:53.564Z,1336
2017-09-17T06:06:34.114Z,1340
2017-09-17T06:07:14.652Z,1352
2017-09-17T06:07:55.193Z,1360
2017-09-17T06:08:35.728Z,1380
2017-09-17T06:09:16.256Z,1432
2017-09-17T06:09:56.789Z,1480
2017-09-17T06:10:37.322Z,1496
2017-09-17T06:11:17.841Z,1472
2017-09-17T06:11:58.434Z,1472
2017-09-17T06:12:38.991Z,1488
2017-09-17T06:13:19.554Z,1524
2017-09-17T06:14:00.124Z,1564
2017-09-17T06:14:40.651Z,1572
2017-09-17T06:15:21.194Z,1584
2017-09-17T06:16:01.756Z,1600
2017-09-17T06:16:42.303Z,1600
2017-09-17T06:17:22.854Z,1608
2017-09-17T06:18:03.426Z,1596
2017-09-17T06:18:43.980Z,1560
2017-09-17T06:19:24.522Z,1528
2017-09-17T06:20:05.049Z,1508
2017-09-17T06:20:45.574Z,1488
2017-09-17T06:21:26.102Z,1460
2017-09-17T06:22:06.624Z,1432
2017-09-17T06:22:47.186Z,1412
2017-09-17T06:23:27.732Z,1396
2017-09-17T06:24:08.283Z,1368
2017-09-17T06:24:48.836Z,1332
2017-09-17T06:25:29.375Z,1308
2017-09-17T06:26:09.926Z,1292
2017-09-17T06:26:50.475Z,1292
2017-09-17T06:27:30.973Z,1292
2017-09-17T06:28:11.525Z,1292
2017-09-17T06:28:52.062Z,1288
2017-09-17T06:29:32.601Z,1280
2017-09-17T06:30:13.142Z,1272
2017-09-17T06:30:53.744Z,1264
2017-09-17T06:31:34.241Z,1248
2017-09-17T06:32:14.795Z,1252
2017-09-17T06:32:55.390Z,1264
2017-09-17T06:33:35.905Z,1264
2017-09-17T06:34:16.413Z,1244
2017-09-17T06:34:56.927Z,1232
2017-09-17T06:35:37.510Z,1232
2017-09-17T06:36:18.019Z,1216
2017-09-17T06:36:58.558Z,1200
2017-09-17T06:37:39.104Z,1184
2017-09-17T06:38:19.643Z,1172
2017-09-17T06:39:00.203Z,1168
2017-09-17T06:39:40.761Z,1172
2017-09-17T06:40:21.336Z,1176
2017-09-17T06:41:01.872Z,1180
2017-09-17T06:41:42.432Z,1196
2017-09-17T06:42:22.990Z,1220
2017-09-17T06:43:03.518Z,1236
2017-09-17T06:43:44.074Z,1260
2017-09-17T06:44:24.591Z,1284
2017-09-17T06:45:05.145Z,1312
2017-09-17T06:45:45.717Z,1356
2017-09-17T06:46:26.244Z,1400
2017-09-17T06:47:06.781Z,1456
2017-09-17T06:47:47.340Z,1524
2017-09-17T06:48:27.892Z,1612
2017-09-17T06:49:08.425Z,1708
2017-09-17T06:49:48.975Z,1776
2017-09-17T06:50:29.481Z,1820
2017-09-17T06:51:10.047Z,1848
2017-09-17T06:51:50.614Z,1852
2017-09-17T06:52:31.146Z,1856
2017-09-17T06:53:11.693Z,1860
2017-09-17T06:53:52.218Z,1880
2017-09-17T06:54:32.748Z,1888
2017-09-17T06:55:13.297Z,1896
2017-09-17T06:55:53.823Z,1920
2017-09-17T06:56:34.355Z,1964
2017-09-17T06:57:14.905Z,2020
2017-09-17T06:57:55.440Z,2060
2017-09-17T06:58:35.988Z,2104
2017-09-17T06:59:16.496Z,2148
2017-09-17T06:59:57.017Z,2176
2017-09-17T07:00:37.600Z,2200
2017-09-17T07:01:19.254Z,2216
2017-09-17T07:01:59.814Z,2224
2017-09-17T07:02:40.423Z,2192
2017-09-17T07:03:20.876Z,2172
2017-09-17T07:04:01.409Z,2224
2017-09-17T07:04:41.961Z,2176
2017-09-17T07:05:22.518Z,2216
2017-09-17T07:06:03.081Z,2220
2017-09-17T07:06:43.634Z,2240
2017-09-17T07:07:24.239Z,2264
2017-09-17T07:08:04.764Z,2292
2017-09-17T07:08:45.309Z,2324
2017-09-17T07:09:25.859Z,2344
2017-09-17T07:10:06.391Z,2352
2017-09-17T07:10:46.987Z,2340
2017-09-17T07:11:27.550Z,2344
2017-09-17T07:12:08.088Z,2352
2017-09-17T07:12:48.642Z,2356
2017-09-17T07:13:29.219Z,2352
2017-09-17T07:14:09.770Z,2344
2017-09-17T07:14:50.299Z,2336
2017-09-17T07:15:30.859Z,2332
2017-09-17T07:16:11.431Z,2344
2017-09-17T07:16:51.968Z,2372
2017-09-17T07:17:32.531Z,2392
2017-09-17T07:18:13.063Z,2412
2017-09-17T07:18:53.605Z,2424
2017-09-17T07:19:34.198Z,2448
2017-09-17T07:20:14.754Z,2492
2017-09-17T07:20:55.256Z,2524
2017-09-17T07:21:35.803Z,2560
2017-09-17T07:22:16.368Z,2596
2017-09-17T07:22:56.899Z,2620
2017-09-17T07:23:37.446Z,2644
2017-09-17T07:24:17.998Z,2652
2017-09-17T07:24:58.541Z,2672
2017-09-17T07:25:39.163Z,2692
2017-09-17T07:26:19.633Z,2728
2017-09-17T07:27:00.200Z,2764
2017-09-17T07:27:40.735Z,2784
2017-09-17T07:28:21.252Z,2808
2017-09-17T07:29:01.758Z,2816
2017-09-17T07:29:42.317Z,2828
2017-09-17T07:30:22.897Z,2860
2017-09-17T07:31:03.399Z,2888
2017-09-17T07:31:44.023Z,2920
2017-09-17T07:32:24.528Z,2932
2017-09-17T07:33:05.053Z,2932
2017-09-17T07:33:45.604Z,2940
2017-09-17T07:34:26.167Z,2924
2017-09-17T07:35:06.688Z,2908
2017-09-17T07:35:47.239Z,2880
2017-09-17T07:36:27.806Z,2836
2017-09-17T07:37:08.321Z,2796
2017-09-17T07:37:48.882Z,2768
2017-09-17T07:38:29.430Z,2772
2017-09-17T07:39:09.973Z,2780
2017-09-17T07:39:50.509Z,2796
2017-09-17T07:40:31.024Z,2820
2017-09-17T07:41:11.552Z,2832
2017-09-17T07:41:52.087Z,2804
2017-09-17T07:42:32.691Z,2752
2017-09-17T07:43:13.163Z,2704
2017-09-17T07:43:53.686Z,2664
2017-09-17T07:44:34.237Z,2672
2017-09-17T07:45:14.755Z,2632
2017-09-17T07:45:55.327Z,2640
2017-09-17T07:46:35.870Z,2652
2017-09-17T07:47:16.468Z,2684
2017-09-17T07:47:56.996Z,2724
2017-09-17T07:48:37.545Z,2768
2017-09-17T07:49:18.067Z,2808
2017-09-17T07:49:58.629Z,2864
2017-09-17T07:50:39.133Z,2944
2017-09-17T07:51:19.675Z,2964
2017-09-17T07:52:00.206Z,2996
2017-09-17T07:52:40.789Z,3012
2017-09-17T07:53:21.459Z,2992
2017-09-17T07:54:01.941Z,2932
2017-09-17T07:54:42.487Z,2872
2017-09-17T07:55:23.040Z,2840
2017-09-17T07:56:03.566Z,2848
2017-09-17T07:56:44.191Z,2864
2017-09-17T07:57:24.644Z,2884
2017-09-17T07:58:05.196Z,2884
2017-09-17T07:58:45.700Z,2912
2017-09-17T07:59:26.247Z,2928
2017-09-17T08:00:06.809Z,2928
2017-09-17T08:00:47.302Z,2912
2017-09-17T08:01:27.858Z,2900
2017-09-17T08:02:08.397Z,2888
2017-09-17T08:02:48.918Z,2880
2017-09-17T08:03:29.498Z,2888
2017-09-17T08:04:10.031Z,2908
2017-09-17T08:04:50.570Z,2944
2017-09-17T08:05:31.102Z,2972
2017-09-17T08:06:11.670Z,3012
2017-09-17T08:06:52.209Z,3032
2017-09-17T08:07:32.779Z,3076
2017-09-17T08:08:13.290Z,3104
2017-09-17T08:08:53.814Z,3124
2017-09-17T08:09:34.358Z,3148
2017-09-17T08:10:14.899Z,3168
2017-09-17T08:10:55.437Z,3184
2017-09-17T08:11:36.006Z,3188
2017-09-17T08:12:16.573Z,3188
2017-09-17T08:12:57.112Z,3176
2017-09-17T08:13:37.628Z,3172
2017-09-17T08:14:18.251Z,3156
2017-09-17T08:14:58.813Z,3148
2017-09-17T08:15:39.300Z,3096
2017-09-17T08:16:19.782Z,3076
2017-09-17T08:17:00.352Z,3072
2017-09-17T08:17:40.875Z,3076
2017-09-17T08:18:21.450Z,3048
2017-09-17T08:19:02.026Z,3028
2017-09-17T08:19:42.548Z,3008
2017-09-17T08:20:23.074Z,2972
2017-09-17T08:21:03.637Z,2944
2017-09-17T08:21:44.191Z,2944
2017-09-17T08:22:24.739Z,2904
2017-09-17T08:23:05.264Z,2868
2017-09-17T08:23:45.857Z,2812
2017-09-17T08:24:26.445Z,2784
2017-09-17T08:25:06.982Z,2792
2017-09-17T08:25:47.514Z,2800
2017-09-17T08:26:28.042Z,2804
2017-09-17T08:27:08.613Z,2784
2017-09-17T08:27:49.127Z,2764
2017-09-17T08:28:29.725Z,2736
2017-09-17T08:29:10.237Z,2724
2017-09-17T08:29:50.829Z,2708
2017-09-17T08:30:31.348Z,2688
2017-09-17T08:31:11.856Z,2684
2017-09-17T08:31:52.386Z,2660
2017-09-17T08:32:32.967Z,2656
2017-09-17T08:33:13.505Z,2664
2017-09-17T08:33:54.034Z,2660
2017-09-17T08:34:34.557Z,2668
2017-09-17T08:35:15.134Z,2680
2017-09-17T08:35:55.628Z,2696
2017-09-17T08:36:36.157Z,2704
2017-09-17T08:37:16.696Z,2724
2017-09-17T08:37:57.223Z,2736
2017-09-17T08:38:37.743Z,2704
2017-09-17T08:39:18.292Z,2672
2017-09-17T08:39:58.844Z,2608
2017-09-17T08:40:39.337Z,2544
2017-09-17T08:41:20.134Z,2480
2017-09-17T08:42:00.657Z,2440
2017-09-17T08:42:41.157Z,2420
2017-09-17T08:43:21.708Z,2432
2017-09-17T08:44:02.248Z,2456
2017-09-17T08:44:42.844Z,2496
2017-09-17T08:45:23.318Z,2524
2017-09-17T08:46:03.840Z,2540
2017-09-17T08:46:44.389Z,2552
2017-09-17T08:47:24.947Z,2588
2017-09-17T08:48:05.475Z,2604
2017-09-17T08:48:46.093Z,2636
2017-09-17T08:49:26.616Z,2648
2017-09-17T08:50:07.158Z,2672
2017-09-17T08:50:47.835Z,2696
2017-09-17T08:51:28.395Z,2692
2017-09-17T08:52:08.882Z,2640
2017-09-17T08:52:49.464Z,2596
2017-09-17T08:53:30.055Z,2608
2017-09-17T08:54:10.546Z,2660
2017-09-17T08:54:51.126Z,2728
2017-09-17T08:55:31.661Z,2776
2017-09-17T08:56:12.236Z,2816
2017-09-17T08:56:52.811Z,2860
2017-09-17T08:57:33.421Z,2904
2017-09-17T08:58:13.900Z,2924
2017-09-17T08:58:54.469Z,2940
2017-09-17T08:59:34.966Z,2964
2017-09-17T09:00:15.505Z,3016
2017-09-17T09:00:56.074Z,3052
2017-09-17T09:01:36.619Z,3068
2017-09-17T09:02:17.154Z,3088
2017-09-17T09:02:57.703Z,3088
2017-09-17T09:03:38.276Z,3088
2017-09-17T09:04:18.847Z,3096
2017-09-17T09:04:59.406Z,3120
2017-09-17T09:05:39.900Z,3152
2017-09-17T09:06:20.470Z,3156
2017-09-17T09:07:01.005Z,3168
2017-09-17T09:07:41.635Z,3204
2017-09-17T09:08:22.112Z,3240
2017-09-17T09:09:02.702Z,3244
2017-09-17T09:09:43.278Z,3244
2017-09-17T09:10:23.804Z,3240
2017-09-17T09:11:04.380Z,3216
2017-09-17T09:11:44.910Z,3116
2017-09-17T09:12:25.407Z,3076
2017-09-17T09:13:05.974Z,3064
2017-09-17T09:13:46.507Z,3140
2017-09-17T09:14:27.112Z,3192
2017-09-17T09:15:07.649Z,3256
2017-09-17T09:15:48.176Z,3344
2017-09-17T09:16:28.688Z,3356
2017-09-17T09:17:09.262Z,3388
2017-09-17T09:17:49.807Z,3452
2017-09-17T09:18:30.349Z,3508
2017-09-17T09:19:10.863Z,3584
2017-09-17T09:19:51.434Z,3748
2017-09-17T09:20:32.014Z,3688
2017-09-17T09:21:12.525Z,3672
2017-09-17T09:21:53.209Z,3664
2017-09-17T09:22:33.711Z,3664
2017-09-17T09:23:14.463Z,3676
2017-09-17T09:23:54.989Z,3692
2017-09-17T09:24:35.556Z,3664
2017-09-17T09:25:16.119Z,3580
2017-09-17T09:25:56.740Z,3496
2017-09-17T09:26:37.246Z,3392
2017-09-17T09:27:17.722Z,3288
2017-09-17T09:27:58.254Z,3208
2017-09-17T09:28:38.827Z,3096
2017-09-17T09:29:19.370Z,3000
2017-09-17T09:29:59.924Z,2944
2017-09-17T09:30:40.516Z,2888
2017-09-17T09:31:21.029Z,2836
2017-09-17T09:32:01.532Z,2840
2017-09-17T09:32:42.162Z,2828
2017-09-17T09:33:22.677Z,2796
2017-09-17T09:34:03.211Z,2800
2017-09-17T09:34:43.843Z,2852
2017-09-17T09:35:24.345Z,3012
2017-09-17T09:36:04.891Z,3072